BAW87 EGLL-CYVR
Flight info
| Callsign | BAW87 |
|---|---|
| Flight time | N/A |
| Altitude | 40000 |
| Route | DCT UMLAT T418 WELIN T420 TNT UL28 RODOL UM65 TENSO L603 BELOX DCT REMSI DCT MASOP DCT NELBO DCT GOTNA DCT DONIB DCT GOMUP/M084F380 DCT 63N020W/M085F400 69N059W/M084F410 69N059W/N0494F400 69N076W 67N090W 63N102W DCT YSM J528 YQU DCT HEIRE Q800 ELIDI WHSLR7 |
| Aircraft | B788/H-SADE1E2E3FGHIJ3J4J5J6LM1M2OP2RWXYZ/LB1D1 |
Departure
| Time | 2026-04-30 13:23 |
|---|---|
| Airport | London Heathrow Airport (EGLL) |
Arrival
| Time | N/A |
|---|---|
| Airport | Vancouver International Airport (CYVR) |
| Time | Latitude | Longitude | Altitude | Speed | Heading |
|---|---|---|---|---|---|
| 2026-04-30 12:59 | 51.47048 | -0.48236 | 92 ft | 0 kts | 90° |
| 2026-04-30 13:16 | 51.47048 | -0.48240 | 92 ft | 3 kts | 92° |
| 2026-04-30 13:16 | 51.47049 | -0.48250 | 92 ft | 0 kts | 101° |
| 2026-04-30 13:16 | 51.47051 | -0.48263 | 94 ft | 0 kts | 112° |
| 2026-04-30 13:17 | 51.47054 | -0.48274 | 93 ft | 0 kts | 122° |
| 2026-04-30 13:17 | 51.47068 | -0.48297 | 92 ft | 5 kts | 145° |
| 2026-04-30 13:17 | 51.47095 | -0.48312 | 93 ft | 0 kts | 179° |
| 2026-04-30 13:18 | 51.47082 | -0.48315 | 92 ft | 4 kts | 205° |
| 2026-04-30 13:18 | 51.46897 | -0.48357 | 95 ft | 13 kts | 179° |
| 2026-04-30 13:18 | 51.46810 | -0.48355 | 94 ft | 12 kts | 180° |
| 2026-04-30 13:19 | 51.46748 | -0.48394 | 95 ft | 7 kts | 243° |
| 2026-04-30 13:19 | 51.46743 | -0.48447 | 93 ft | 10 kts | 266° |
| 2026-04-30 13:19 | 51.46740 | -0.48638 | 92 ft | 17 kts | 269° |
| 2026-04-30 13:19 | 51.46701 | -0.48748 | 96 ft | 6 kts | 188° |
| 2026-04-30 13:20 | 51.46669 | -0.48750 | 94 ft | 4 kts | 181° |
| 2026-04-30 13:20 | 51.46633 | -0.48758 | 95 ft | 8 kts | 191° |
| 2026-04-30 13:20 | 51.46565 | -0.48786 | 94 ft | 13 kts | 193° |
| 2026-04-30 13:20 | 51.46499 | -0.48768 | 94 ft | 9 kts | 152° |
| 2026-04-30 13:21 | 51.46482 | -0.48736 | 97 ft | 3 kts | 102° |
| 2026-04-30 13:21 | 51.46479 | -0.48697 | 95 ft | 6 kts | 97° |
| 2026-04-30 13:21 | 51.46477 | -0.48633 | 94 ft | 0 kts | 90° |
| 2026-04-30 13:22 | 51.46481 | -0.47835 | 92 ft | 100 kts | 91° |
| 2026-04-30 13:23 | 51.46506 | -0.46360 | 97 ft | 162 kts | 86° |
| 2026-04-30 13:23 | 51.46598 | -0.42409 | 1955 ft | 163 kts | 84° |
| 2026-04-30 13:24 | 51.47514 | -0.38582 | 3597 ft | 215 kts | 51° |
| 2026-04-30 13:24 | 51.50201 | -0.35260 | 4692 ft | 268 kts | 37° |
| 2026-04-30 13:25 | 51.53493 | -0.32077 | 6554 ft | 281 kts | 37° |
| 2026-04-30 13:25 | 51.56266 | -0.29249 | 8128 ft | 286 kts | 37° |
| 2026-04-30 13:26 | 51.61779 | -0.25134 | 10559 ft | 324 kts | 1° |
| 2026-04-30 13:26 | 51.66214 | -0.28005 | 11135 ft | 375 kts | 323° |
| 2026-04-30 13:27 | 51.68980 | -0.31788 | 12342 ft | 379 kts | 322° |
| 2026-04-30 13:28 | 51.75346 | -0.39571 | 14766 ft | 393 kts | 321° |
| 2026-04-30 13:28 | 51.79660 | -0.45069 | 16161 ft | 401 kts | 322° |
| 2026-04-30 13:28 | 51.81878 | -0.47832 | 16894 ft | 405 kts | 322° |
| 2026-04-30 13:29 | 51.85458 | -0.52365 | 18020 ft | 411 kts | 321° |
| 2026-04-30 13:29 | 51.90001 | -0.58129 | 19315 ft | 419 kts | 321° |
| 2026-04-30 13:30 | 51.96979 | -0.66998 | 21012 ft | 432 kts | 321° |
| 2026-04-30 13:31 | 52.00707 | -0.71716 | 21827 ft | 438 kts | 325° |
| 2026-04-30 13:31 | 52.09162 | -0.77093 | 23362 ft | 447 kts | 344° |
| 2026-04-30 13:32 | 52.14094 | -0.79649 | 24118 ft | 453 kts | 343° |
| 2026-04-30 13:32 | 52.20119 | -0.82821 | 24941 ft | 459 kts | 343° |
| 2026-04-30 13:33 | 52.26116 | -0.86598 | 25739 ft | 465 kts | 329° |
| 2026-04-30 13:33 | 52.31670 | -0.92121 | 26474 ft | 472 kts | 328° |
| 2026-04-30 13:34 | 52.34476 | -0.94934 | 26858 ft | 475 kts | 329° |
| 2026-04-30 13:34 | 52.42985 | -1.03409 | 27894 ft | 483 kts | 328° |
| 2026-04-30 13:35 | 52.45869 | -1.06307 | 28210 ft | 486 kts | 328° |
| 2026-04-30 13:35 | 52.51684 | -1.12139 | 28846 ft | 491 kts | 328° |
| 2026-04-30 13:36 | 52.57523 | -1.18039 | 29471 ft | 496 kts | 328° |
| 2026-04-30 13:36 | 52.60440 | -1.20983 | 29773 ft | 498 kts | 328° |
| 2026-04-30 13:36 | 52.64507 | -1.25088 | 30177 ft | 502 kts | 328° |
| 2026-04-30 13:37 | 52.65677 | -1.26274 | 30289 ft | 503 kts | 328° |
| 2026-04-30 13:37 | 52.71672 | -1.32364 | 30871 ft | 506 kts | 328° |
| 2026-04-30 13:38 | 52.77668 | -1.38473 | 31566 ft | 509 kts | 328° |
| 2026-04-30 13:38 | 52.80700 | -1.41572 | 31830 ft | 511 kts | 328° |
| 2026-04-30 13:38 | 52.86741 | -1.47758 | 32337 ft | 514 kts | 328° |
| 2026-04-30 13:39 | 52.92830 | -1.54016 | 32816 ft | 517 kts | 328° |
| 2026-04-30 13:39 | 52.98958 | -1.60334 | 33268 ft | 520 kts | 327° |
| 2026-04-30 13:40 | 53.02013 | -1.63491 | 33508 ft | 522 kts | 327° |
| 2026-04-30 13:40 | 53.05098 | -1.66685 | 33829 ft | 521 kts | 327° |
| 2026-04-30 13:40 | 53.08190 | -1.69894 | 34138 ft | 520 kts | 327° |
| 2026-04-30 13:40 | 53.10228 | -1.72013 | 34348 ft | 520 kts | 327° |
| 2026-04-30 13:41 | 53.14303 | -1.76259 | 34727 ft | 519 kts | 327° |
| 2026-04-30 13:41 | 53.16270 | -1.78310 | 34915 ft | 518 kts | 327° |
| 2026-04-30 13:41 | 53.20330 | -1.82551 | 35284 ft | 517 kts | 327° |
| 2026-04-30 13:41 | 53.22085 | -1.84388 | 35435 ft | 516 kts | 327° |
| 2026-04-30 13:42 | 53.25004 | -1.87318 | 35702 ft | 515 kts | 331° |
| 2026-04-30 13:42 | 53.28128 | -1.90237 | 35959 ft | 514 kts | 329° |
| 2026-04-30 13:42 | 53.33282 | -1.95180 | 36428 ft | 512 kts | 329° |
| 2026-04-30 13:43 | 53.36307 | -1.98046 | 36701 ft | 511 kts | 330° |
| 2026-04-30 13:43 | 53.40393 | -2.01905 | 37054 ft | 510 kts | 329° |
| 2026-04-30 13:43 | 53.42484 | -2.03900 | 37240 ft | 509 kts | 329° |
| 2026-04-30 13:43 | 53.45541 | -2.06832 | 37497 ft | 508 kts | 329° |
| 2026-04-30 13:44 | 53.48617 | -2.09776 | 37765 ft | 507 kts | 329° |
| 2026-04-30 13:44 | 53.51657 | -2.12679 | 38029 ft | 506 kts | 329° |
| 2026-04-30 13:44 | 53.54736 | -2.15636 | 38241 ft | 506 kts | 327° |
| 2026-04-30 13:44 | 53.57559 | -2.19080 | 38250 ft | 506 kts | 315° |
| 2026-04-30 13:45 | 53.61322 | -2.27024 | 38244 ft | 498 kts | 294° |
| 2026-04-30 13:45 | 53.62279 | -2.30405 | 38250 ft | 494 kts | 288° |
| 2026-04-30 13:46 | 53.64325 | -2.39285 | 38210 ft | 493 kts | 288° |
| 2026-04-30 13:46 | 53.66767 | -2.50010 | 38199 ft | 491 kts | 288° |
| 2026-04-30 13:47 | 53.69210 | -2.60740 | 38182 ft | 489 kts | 288° |
| 2026-04-30 13:47 | 53.71634 | -2.71475 | 38179 ft | 487 kts | 288° |
| 2026-04-30 13:48 | 53.74034 | -2.82137 | 38177 ft | 486 kts | 288° |
| 2026-04-30 13:48 | 53.76411 | -2.92764 | 38178 ft | 484 kts | 287° |
| 2026-04-30 13:49 | 53.78757 | -3.03298 | 38180 ft | 483 kts | 287° |
| 2026-04-30 13:49 | 53.81117 | -3.13956 | 38182 ft | 483 kts | 287° |
| 2026-04-30 13:50 | 53.83458 | -3.24577 | 38188 ft | 483 kts | 287° |
| 2026-04-30 13:50 | 53.86739 | -3.39554 | 38193 ft | 483 kts | 287° |
| 2026-04-30 13:51 | 53.88662 | -3.48388 | 38196 ft | 483 kts | 287° |
| 2026-04-30 13:51 | 53.90969 | -3.59029 | 38198 ft | 483 kts | 287° |
| 2026-04-30 13:52 | 53.93276 | -3.69729 | 38194 ft | 483 kts | 287° |
| 2026-04-30 13:52 | 53.95583 | -3.80436 | 38195 ft | 484 kts | 290° |
| 2026-04-30 13:53 | 53.98963 | -3.90448 | 38199 ft | 490 kts | 300° |
| 2026-04-30 13:53 | 54.02612 | -4.00211 | 38197 ft | 491 kts | 300° |
| 2026-04-30 13:54 | 54.06248 | -4.10054 | 38203 ft | 491 kts | 300° |
| 2026-04-30 13:54 | 54.09898 | -4.19926 | 38194 ft | 491 kts | 300° |
| 2026-04-30 13:55 | 54.13518 | -4.29783 | 38198 ft | 492 kts | 300° |
| 2026-04-30 13:55 | 54.16999 | -4.39306 | 38193 ft | 0 kts | 299° |
| 2026-04-30 13:56 | 54.17797 | -4.41798 | 44392 ft | 0 kts | 295° |
| 2026-04-30 13:56 | 54.17847 | -4.41984 | 44725 ft | 271 kts | 294° |
| 2026-04-30 13:56 | 54.18086 | -4.42908 | 45761 ft | 0 kts | 291° |
| 2026-04-30 13:57 | 54.18405 | -4.44349 | 44491 ft | 199 kts | 285° |
| 2026-04-30 13:57 | 54.18444 | -4.44585 | 37135 ft | 193 kts | 284° |
| 2026-04-30 13:57 | 54.18977 | -4.46813 | 35884 ft | 233 kts | 298° |
| 2026-04-30 13:57 | 54.20032 | -4.49059 | 32685 ft | 0 kts | 105° |
| 2026-04-30 13:58 | 54.20042 | -4.48713 | 29231 ft | 94 kts | 351° |